sensor_id;sensor_type;location;lat;lon;timestamp;P1;durP1;ratioP1;P2;durP2;ratioP2
15443;SDS011;7822;48.146;11.576;2022-07-22T00:01:12;12.93;;;11.82;;
15443;SDS011;7822;48.146;11.576;2022-07-22T00:03:40;13.05;;;11.93;;
15443;SDS011;7822;48.146;11.576;2022-07-22T00:06:08;13.32;;;12.13;;
15443;SDS011;7822;48.146;11.576;2022-07-22T00:08:37;12.55;;;11.55;;
15443;SDS011;7822;48.146;11.576;2022-07-22T00:11:05;12.98;;;11.88;;
15443;SDS011;7822;48.146;11.576;2022-07-22T00:13:33;12.52;;;11.40;;
15443;SDS011;7822;48.146;11.576;2022-07-22T00:16:01;12.73;;;11.63;;
15443;SDS011;7822;48.146;11.576;2022-07-22T00:18:29;13.02;;;11.73;;
15443;SDS011;7822;48.146;11.576;2022-07-22T00:20:57;12.98;;;11.88;;
15443;SDS011;7822;48.146;11.576;2022-07-22T00:23:24;12.52;;;11.40;;
15443;SDS011;7822;48.146;11.576;2022-07-22T00:25:54;12.55;;;11.35;;
15443;SDS011;7822;48.146;11.576;2022-07-22T00:28:21;13.38;;;12.18;;
15443;SDS011;7822;48.146;11.576;2022-07-22T00:30:49;12.48;;;11.38;;
15443;SDS011;7822;48.146;11.576;2022-07-22T00:33:19;12.88;;;11.63;;
15443;SDS011;7822;48.146;11.576;2022-07-22T00:35:47;12.82;;;11.63;;
15443;SDS011;7822;48.146;11.576;2022-07-22T00:38:15;12.30;;;11.30;;
15443;SDS011;7822;48.146;11.576;2022-07-22T00:40:43;13.48;;;12.23;;
15443;SDS011;7822;48.146;11.576;2022-07-22T00:43:12;12.23;;;11.13;;
15443;SDS011;7822;48.146;11.576;2022-07-22T00:45:39;12.70;;;11.57;;
15443;SDS011;7822;48.146;11.576;2022-07-22T00:48:07;11.73;;;10.73;;
15443;SDS011;7822;48.146;11.576;2022-07-22T00:50:35;12.07;;;11.00;;
15443;SDS011;7822;48.146;11.576;2022-07-22T00:53:03;12.68;;;11.57;;
15443;SDS011;7822;48.146;11.576;2022-07-22T00:55:32;11.55;;;10.55;;
15443;SDS011;7822;48.146;11.576;2022-07-22T00:58:01;11.95;;;10.95;;
15443;SDS011;7822;48.146;11.576;2022-07-22T01:00:30;11.63;;;10.60;;
15443;SDS011;7822;48.146;11.576;2022-07-22T01:02:58;12.43;;;11.23;;
15443;SDS011;7822;48.146;11.576;2022-07-22T01:05:26;12.70;;;11.60;;
15443;SDS011;7822;48.146;11.576;2022-07-22T01:07:54;12.65;;;11.43;;
15443;SDS011;7822;48.146;11.576;2022-07-22T01:10:21;11.68;;;10.57;;
15443;SDS011;7822;48.146;11.576;2022-07-22T01:12:49;11.85;;;10.70;;
15443;SDS011;7822;48.146;11.576;2022-07-22T01:15:17;12.07;;;11.07;;
15443;SDS011;7822;48.146;11.576;2022-07-22T01:17:46;12.55;;;11.40;;
15443;SDS011;7822;48.146;11.576;2022-07-22T01:20:15;12.02;;;11.02;;
15443;SDS011;7822;48.146;11.576;2022-07-22T01:22:43;11.52;;;10.52;;
15443;SDS011;7822;48.146;11.576;2022-07-22T01:25:11;12.52;;;11.32;;
15443;SDS011;7822;48.146;11.576;2022-07-22T01:27:39;12.45;;;11.35;;
15443;SDS011;7822;48.146;11.576;2022-07-22T01:30:07;13.35;;;12.02;;
15443;SDS011;7822;48.146;11.576;2022-07-22T01:32:36;11.68;;;10.68;;
15443;SDS011;7822;48.146;11.576;2022-07-22T01:35:04;12.05;;;11.00;;
15443;SDS011;7822;48.146;11.576;2022-07-22T01:37:34;12.07;;;10.98;;
15443;SDS011;7822;48.146;11.576;2022-07-22T01:40:02;12.75;;;11.40;;
15443;SDS011;7822;48.146;11.576;2022-07-22T01:42:30;12.35;;;11.20;;
15443;SDS011;7822;48.146;11.576;2022-07-22T01:44:58;11.93;;;10.73;;
15443;SDS011;7822;48.146;11.576;2022-07-22T01:47:26;11.57;;;10.45;;
15443;SDS011;7822;48.146;11.576;2022-07-22T01:49:53;11.90;;;10.90;;
15443;SDS011;7822;48.146;11.576;2022-07-22T01:52:21;11.90;;;10.82;;
15443;SDS011;7822;48.146;11.576;2022-07-22T01:54:50;11.82;;;10.73;;
15443;SDS011;7822;48.146;11.576;2022-07-22T01:57:18;12.65;;;11.55;;
15443;SDS011;7822;48.146;11.576;2022-07-22T01:59:46;11.88;;;10.93;;
15443;SDS011;7822;48.146;11.576;2022-07-22T02:02:14;15.20;;;10.88;;
15443;SDS011;7822;48.146;11.576;2022-07-22T02:04:41;11.98;;;10.73;;
15443;SDS011;7822;48.146;11.576;2022-07-22T02:07:09;12.98;;;11.68;;
15443;SDS011;7822;48.146;11.576;2022-07-22T02:09:37;12.45;;;11.15;;
15443;SDS011;7822;48.146;11.576;2022-07-22T02:24:19;12.52;;;11.27;;
15443;SDS011;7822;48.146;11.576;2022-07-22T02:26:45;11.93;;;10.73;;
15443;SDS011;7822;48.146;11.576;2022-07-22T02:29:13;12.70;;;11.60;;
15443;SDS011;7822;48.146;11.576;2022-07-22T02:31:41;11.75;;;10.70;;
15443;SDS011;7822;48.146;11.576;2022-07-22T02:34:09;12.43;;;11.10;;
15443;SDS011;7822;48.146;11.576;2022-07-22T02:36:38;12.00;;;10.90;;
15443;SDS011;7822;48.146;11.576;2022-07-22T02:39:05;12.07;;;10.95;;
15443;SDS011;7822;48.146;11.576;2022-07-22T02:41:37;12.98;;;11.82;;
15443;SDS011;7822;48.146;11.576;2022-07-22T02:44:04;12.07;;;10.93;;
15443;SDS011;7822;48.146;11.576;2022-07-22T02:46:32;12.73;;;11.23;;
15443;SDS011;7822;48.146;11.576;2022-07-22T02:49:00;12.25;;;11.15;;
15443;SDS011;7822;48.146;11.576;2022-07-22T02:51:29;13.38;;;12.15;;
15443;SDS011;7822;48.146;11.576;2022-07-22T02:53:57;12.70;;;11.60;;
15443;SDS011;7822;48.146;11.576;2022-07-22T02:56:25;12.35;;;11.00;;
15443;SDS011;7822;48.146;11.576;2022-07-22T02:58:54;12.85;;;11.75;;
15443;SDS011;7822;48.146;11.576;2022-07-22T03:01:22;12.65;;;11.45;;
15443;SDS011;7822;48.146;11.576;2022-07-22T03:03:50;12.48;;;11.38;;
15443;SDS011;7822;48.146;11.576;2022-07-22T03:06:21;12.95;;;11.75;;
15443;SDS011;7822;48.146;11.576;2022-07-22T03:08:48;12.48;;;11.45;;
15443;SDS011;7822;48.146;11.576;2022-07-22T03:11:16;11.57;;;10.65;;
15443;SDS011;7822;48.146;11.576;2022-07-22T03:13:44;12.30;;;11.20;;
15443;SDS011;7822;48.146;11.576;2022-07-22T03:16:13;12.57;;;11.38;;
15443;SDS011;7822;48.146;11.576;2022-07-22T03:18:41;12.60;;;11.40;;
15443;SDS011;7822;48.146;11.576;2022-07-22T03:21:09;12.45;;;11.35;;
15443;SDS011;7822;48.146;11.576;2022-07-22T03:23:36;12.88;;;11.77;;
15443;SDS011;7822;48.146;11.576;2022-07-22T03:26:04;12.43;;;11.32;;
15443;SDS011;7822;48.146;11.576;2022-07-22T03:28:32;13.23;;;11.93;;
15443;SDS011;7822;48.146;11.576;2022-07-22T03:31:00;12.48;;;11.30;;
15443;SDS011;7822;48.146;11.576;2022-07-22T03:33:29;11.65;;;10.60;;
15443;SDS011;7822;48.146;11.576;2022-07-22T03:35:57;12.68;;;11.57;;
15443;SDS011;7822;48.146;11.576;2022-07-22T03:38:24;12.75;;;11.65;;
15443;SDS011;7822;48.146;11.576;2022-07-22T03:40:52;13.30;;;12.00;;
15443;SDS011;7822;48.146;11.576;2022-07-22T03:43:21;11.82;;;10.80;;
15443;SDS011;7822;48.146;11.576;2022-07-22T03:45:49;12.07;;;11.07;;
15443;SDS011;7822;48.146;11.576;2022-07-22T03:48:20;12.50;;;11.32;;
15443;SDS011;7822;48.146;11.576;2022-07-22T03:50:49;12.95;;;11.85;;
15443;SDS011;7822;48.146;11.576;2022-07-22T03:53:17;13.32;;;12.13;;
15443;SDS011;7822;48.146;11.576;2022-07-22T03:55:46;12.73;;;11.52;;
15443;SDS011;7822;48.146;11.576;2022-07-22T03:58:15;13.15;;;11.85;;
15443;SDS011;7822;48.146;11.576;2022-07-22T04:00:43;12.82;;;11.63;;
15443;SDS011;7822;48.146;11.576;2022-07-22T04:03:11;13.13;;;12.02;;
15443;SDS011;7822;48.146;11.576;2022-07-22T04:05:39;13.88;;;12.60;;
15443;SDS011;7822;48.146;11.576;2022-07-22T04:08:08;13.98;;;12.73;;
15443;SDS011;7822;48.146;11.576;2022-07-22T04:10:36;12.90;;;11.80;;
15443;SDS011;7822;48.146;11.576;2022-07-22T04:13:03;13.20;;;12.10;;
15443;SDS011;7822;48.146;11.576;2022-07-22T04:15:31;13.85;;;12.48;;
15443;SDS011;7822;48.146;11.576;2022-07-22T04:17:59;13.18;;;11.98;;
15443;SDS011;7822;48.146;11.576;2022-07-22T04:20:27;12.57;;;11.48;;
15443;SDS011;7822;48.146;11.576;2022-07-22T04:22:55;13.18;;;12.02;;
15443;SDS011;7822;48.146;11.576;2022-07-22T04:25:24;14.02;;;12.55;;
15443;SDS011;7822;48.146;11.576;2022-07-22T04:27:52;13.43;;;12.23;;
15443;SDS011;7822;48.146;11.576;2022-07-22T04:30:19;13.20;;;11.95;;
15443;SDS011;7822;48.146;11.576;2022-07-22T04:32:47;12.98;;;11.77;;
15443;SDS011;7822;48.146;11.576;2022-07-22T04:35:15;13.63;;;12.40;;
15443;SDS011;7822;48.146;11.576;2022-07-22T04:37:42;11.32;;;10.32;;
15443;SDS011;7822;48.146;11.576;2022-07-22T04:40:12;13.05;;;11.80;;
15443;SDS011;7822;48.146;11.576;2022-07-22T04:42:42;11.57;;;10.48;;
15443;SDS011;7822;48.146;11.576;2022-07-22T04:50:09;13.00;;;11.70;;
15443;SDS011;7822;48.146;11.576;2022-07-22T04:52:35;13.85;;;12.52;;
15443;SDS011;7822;48.146;11.576;2022-07-22T04:55:02;13.63;;;12.27;;
15443;SDS011;7822;48.146;11.576;2022-07-22T04:57:29;14.80;;;11.90;;
15443;SDS011;7822;48.146;11.576;2022-07-22T04:59:55;13.23;;;11.98;;
15443;SDS011;7822;48.146;11.576;2022-07-22T05:02:21;13.50;;;12.30;;
15443;SDS011;7822;48.146;11.576;2022-07-22T05:04:48;13.13;;;11.82;;
15443;SDS011;7822;48.146;11.576;2022-07-22T05:07:15;14.07;;;12.85;;
15443;SDS011;7822;48.146;11.576;2022-07-22T05:09:53;14.00;;;12.68;;
15443;SDS011;7822;48.146;11.576;2022-07-22T05:12:19;14.55;;;13.25;;
15443;SDS011;7822;48.146;11.576;2022-07-22T05:14:45;13.52;;;12.35;;
15443;SDS011;7822;48.146;11.576;2022-07-22T05:17:12;14.30;;;12.95;;
15443;SDS011;7822;48.146;11.576;2022-07-22T05:19:41;16.08;;;12.88;;
15443;SDS011;7822;48.146;11.576;2022-07-22T05:22:07;14.50;;;13.00;;
15443;SDS011;7822;48.146;11.576;2022-07-22T05:24:34;14.73;;;13.32;;
15443;SDS011;7822;48.146;11.576;2022-07-22T05:30:35;13.52;;;12.32;;
15443;SDS011;7822;48.146;11.576;2022-07-22T05:33:01;13.02;;;11.82;;
15443;SDS011;7822;48.146;11.576;2022-07-22T05:35:28;13.77;;;12.57;;
15443;SDS011;7822;48.146;11.576;2022-07-22T05:37:54;14.70;;;13.25;;
15443;SDS011;7822;48.146;11.576;2022-07-22T05:40:21;14.10;;;12.70;;
15443;SDS011;7822;48.146;11.576;2022-07-22T05:42:48;13.50;;;12.23;;
15443;SDS011;7822;48.146;11.576;2022-07-22T05:45:14;13.55;;;12.35;;
15443;SDS011;7822;48.146;11.576;2022-07-22T05:47:42;14.40;;;12.73;;
15443;SDS011;7822;48.146;11.576;2022-07-22T05:50:09;14.23;;;12.85;;
15443;SDS011;7822;48.146;11.576;2022-07-22T05:52:37;14.55;;;13.15;;
15443;SDS011;7822;48.146;11.576;2022-07-22T05:55:07;13.48;;;12.35;;
15443;SDS011;7822;48.146;11.576;2022-07-22T05:57:36;14.23;;;12.82;;
15443;SDS011;7822;48.146;11.576;2022-07-22T06:00:04;12.88;;;11.68;;
15443;SDS011;7822;48.146;11.576;2022-07-22T06:02:33;13.57;;;12.38;;
15443;SDS011;7822;48.146;11.576;2022-07-22T06:05:02;14.15;;;12.85;;
15443;SDS011;7822;48.146;11.576;2022-07-22T06:07:30;12.75;;;11.52;;
15443;SDS011;7822;48.146;11.576;2022-07-22T06:09:58;13.02;;;11.80;;
15443;SDS011;7822;48.146;11.576;2022-07-22T06:12:26;14.50;;;13.10;;
15443;SDS011;7822;48.146;11.576;2022-07-22T06:14:54;14.32;;;13.10;;
15443;SDS011;7822;48.146;11.576;2022-07-22T06:17:21;14.25;;;12.95;;
15443;SDS011;7822;48.146;11.576;2022-07-22T06:19:49;15.63;;;14.15;;
15443;SDS011;7822;48.146;11.576;2022-07-22T06:22:18;15.13;;;13.45;;
15443;SDS011;7822;48.146;11.576;2022-07-22T06:24:46;14.45;;;13.15;;
15443;SDS011;7822;48.146;11.576;2022-07-22T06:27:14;13.50;;;12.32;;
15443;SDS011;7822;48.146;11.576;2022-07-22T06:29:42;13.10;;;11.90;;
15443;SDS011;7822;48.146;11.576;2022-07-22T06:32:10;15.10;;;13.68;;
15443;SDS011;7822;48.146;11.576;2022-07-22T06:34:40;14.07;;;12.68;;
15443;SDS011;7822;48.146;11.576;2022-07-22T06:37:08;16.08;;;14.45;;
15443;SDS011;7822;48.146;11.576;2022-07-22T06:39:37;14.30;;;12.88;;
15443;SDS011;7822;48.146;11.576;2022-07-22T06:42:05;14.13;;;12.70;;
15443;SDS011;7822;48.146;11.576;2022-07-22T06:44:33;13.77;;;12.57;;
15443;SDS011;7822;48.146;11.576;2022-07-22T06:47:01;13.95;;;12.57;;
15443;SDS011;7822;48.146;11.576;2022-07-22T06:49:29;13.77;;;12.02;;
15443;SDS011;7822;48.146;11.576;2022-07-22T06:51:57;13.15;;;11.95;;
15443;SDS011;7822;48.146;11.576;2022-07-22T06:54:27;13.60;;;12.40;;
15443;SDS011;7822;48.146;11.576;2022-07-22T06:56:56;13.20;;;11.98;;
15443;SDS011;7822;48.146;11.576;2022-07-22T06:59:24;13.95;;;12.63;;
15443;SDS011;7822;48.146;11.576;2022-07-22T07:01:52;12.57;;;11.38;;
15443;SDS011;7822;48.146;11.576;2022-07-22T07:04:19;13.65;;;12.32;;
15443;SDS011;7822;48.146;11.576;2022-07-22T07:06:47;13.73;;;12.32;;
15443;SDS011;7822;48.146;11.576;2022-07-22T07:09:15;14.95;;;12.88;;
15443;SDS011;7822;48.146;11.576;2022-07-22T07:11:43;13.80;;;12.40;;
15443;SDS011;7822;48.146;11.576;2022-07-22T07:14:14;13.27;;;12.02;;
15443;SDS011;7822;48.146;11.576;2022-07-22T07:16:42;13.43;;;11.90;;
15443;SDS011;7822;48.146;11.576;2022-07-22T07:19:10;12.65;;;11.45;;
15443;SDS011;7822;48.146;11.576;2022-07-22T07:21:37;12.57;;;11.38;;
15443;SDS011;7822;48.146;11.576;2022-07-22T07:24:05;13.20;;;12.00;;
15443;SDS011;7822;48.146;11.576;2022-07-22T07:26:34;13.25;;;12.00;;
15443;SDS011;7822;48.146;11.576;2022-07-22T07:29:02;13.15;;;11.85;;
15443;SDS011;7822;48.146;11.576;2022-07-22T07:31:31;13.88;;;12.57;;
15443;SDS011;7822;48.146;11.576;2022-07-22T07:34:00;13.85;;;12.05;;
15443;SDS011;7822;48.146;11.576;2022-07-22T07:36:28;11.55;;;10.50;;
15443;SDS011;7822;48.146;11.576;2022-07-22T07:38:56;11.35;;;10.35;;
15443;SDS011;7822;48.146;11.576;2022-07-22T07:41:25;11.70;;;10.60;;
15443;SDS011;7822;48.146;11.576;2022-07-22T07:43:53;12.88;;;11.60;;
15443;SDS011;7822;48.146;11.576;2022-07-22T07:46:21;12.20;;;11.00;;
15443;SDS011;7822;48.146;11.576;2022-07-22T07:48:50;12.27;;;11.18;;
15443;SDS011;7822;48.146;11.576;2022-07-22T07:51:18;12.50;;;11.50;;
15443;SDS011;7822;48.146;11.576;2022-07-22T07:53:46;13.23;;;12.02;;
15443;SDS011;7822;48.146;11.576;2022-07-22T07:56:14;12.77;;;11.57;;
15443;SDS011;7822;48.146;11.576;2022-07-22T07:58:41;12.35;;;11.25;;
15443;SDS011;7822;48.146;11.576;2022-07-22T08:01:29;12.15;;;10.80;;
15443;SDS011;7822;48.146;11.576;2022-07-22T08:04:18;11.73;;;10.60;;
15443;SDS011;7822;48.146;11.576;2022-07-22T08:07:02;11.30;;;10.15;;
15443;SDS011;7822;48.146;11.576;2022-07-22T08:09:30;13.48;;;10.30;;
15443;SDS011;7822;48.146;11.576;2022-07-22T08:11:58;10.70;;;9.77;;
15443;SDS011;7822;48.146;11.576;2022-07-22T08:14:26;12.30;;;11.10;;
15443;SDS011;7822;48.146;11.576;2022-07-22T08:16:54;12.63;;;11.32;;
15443;SDS011;7822;48.146;11.576;2022-07-22T08:19:23;15.82;;;12.25;;
15443;SDS011;7822;48.146;11.576;2022-07-22T08:21:53;12.10;;;10.90;;
15443;SDS011;7822;48.146;11.576;2022-07-22T08:24:20;10.88;;;10.00;;
15443;SDS011;7822;48.146;11.576;2022-07-22T08:26:49;11.57;;;10.48;;
15443;SDS011;7822;48.146;11.576;2022-07-22T08:29:17;12.25;;;11.13;;
15443;SDS011;7822;48.146;11.576;2022-07-22T08:31:44;11.43;;;10.43;;
15443;SDS011;7822;48.146;11.576;2022-07-22T08:34:12;11.30;;;10.40;;
15443;SDS011;7822;48.146;11.576;2022-07-22T08:36:41;11.68;;;10.50;;
15443;SDS011;7822;48.146;11.576;2022-07-22T08:39:09;12.55;;;11.35;;
15443;SDS011;7822;48.146;11.576;2022-07-22T08:41:37;12.02;;;10.82;;
15443;SDS011;7822;48.146;11.576;2022-07-22T08:44:07;12.00;;;10.90;;
15443;SDS011;7822;48.146;11.576;2022-07-22T08:46:36;11.13;;;9.93;;
15443;SDS011;7822;48.146;11.576;2022-07-22T08:49:05;10.55;;;9.65;;
15443;SDS011;7822;48.146;11.576;2022-07-22T08:51:33;10.47;;;9.57;;
15443;SDS011;7822;48.146;11.576;2022-07-22T08:54:04;11.35;;;10.35;;
15443;SDS011;7822;48.146;11.576;2022-07-22T08:56:32;10.32;;;9.52;;
15443;SDS011;7822;48.146;11.576;2022-07-22T08:59:00;10.32;;;9.43;;
15443;SDS011;7822;48.146;11.576;2022-07-22T09:01:27;10.68;;;9.77;;
15443;SDS011;7822;48.146;11.576;2022-07-22T09:03:56;10.35;;;9.30;;
15443;SDS011;7822;48.146;11.576;2022-07-22T09:06:25;9.68;;;8.77;;
15443;SDS011;7822;48.146;11.576;2022-07-22T09:09:00;10.07;;;9.18;;
15443;SDS011;7822;48.146;11.576;2022-07-22T09:11:34;10.98;;;9.82;;
15443;SDS011;7822;48.146;11.576;2022-07-22T09:14:02;10.43;;;9.52;;
15443;SDS011;7822;48.146;11.576;2022-07-22T09:16:39;10.00;;;9.02;;
15443;SDS011;7822;48.146;11.576;2022-07-22T09:19:08;9.95;;;9.05;;
15443;SDS011;7822;48.146;11.576;2022-07-22T09:21:37;11.00;;;10.00;;
15443;SDS011;7822;48.146;11.576;2022-07-22T09:24:06;10.52;;;9.15;;
15443;SDS011;7822;48.146;11.576;2022-07-22T09:26:36;10.27;;;9.38;;
15443;SDS011;7822;48.146;11.576;2022-07-22T09:29:05;10.18;;;9.18;;
15443;SDS011;7822;48.146;11.576;2022-07-22T09:31:36;9.30;;;8.50;;
15443;SDS011;7822;48.146;11.576;2022-07-22T09:34:05;9.65;;;8.65;;
15443;SDS011;7822;48.146;11.576;2022-07-22T09:36:39;9.77;;;8.95;;
15443;SDS011;7822;48.146;11.576;2022-07-22T09:39:24;9.52;;;8.70;;
15443;SDS011;7822;48.146;11.576;2022-07-22T09:42:00;8.80;;;8.10;;
15443;SDS011;7822;48.146;11.576;2022-07-22T09:44:31;9.60;;;8.70;;
15443;SDS011;7822;48.146;11.576;2022-07-22T09:46:58;10.35;;;9.43;;
15443;SDS011;7822;48.146;11.576;2022-07-22T09:49:30;10.70;;;9.75;;
15443;SDS011;7822;48.146;11.576;2022-07-22T09:51:58;9.98;;;9.18;;
15443;SDS011;7822;48.146;11.576;2022-07-22T09:54:31;9.57;;;8.77;;
15443;SDS011;7822;48.146;11.576;2022-07-22T09:57:01;9.55;;;8.73;;
15443;SDS011;7822;48.146;11.576;2022-07-22T09:59:29;9.07;;;8.27;;
15443;SDS011;7822;48.146;11.576;2022-07-22T10:01:58;10.20;;;8.85;;
15443;SDS011;7822;48.146;11.576;2022-07-22T10:04:28;8.77;;;7.97;;
15443;SDS011;7822;48.146;11.576;2022-07-22T10:07:01;9.35;;;8.45;;
15443;SDS011;7822;48.146;11.576;2022-07-22T10:09:29;9.73;;;8.82;;
15443;SDS011;7822;48.146;11.576;2022-07-22T10:11:57;9.65;;;8.85;;
15443;SDS011;7822;48.146;11.576;2022-07-22T10:14:27;9.57;;;8.75;;
15443;SDS011;7822;48.146;11.576;2022-07-22T10:16:56;9.52;;;8.80;;
15443;SDS011;7822;48.146;11.576;2022-07-22T10:19:32;9.73;;;8.93;;
15443;SDS011;7822;48.146;11.576;2022-07-22T10:22:00;9.82;;;8.82;;
15443;SDS011;7822;48.146;11.576;2022-07-22T10:24:28;9.38;;;8.48;;
15443;SDS011;7822;48.146;11.576;2022-07-22T10:26:56;9.77;;;8.98;;
15443;SDS011;7822;48.146;11.576;2022-07-22T10:29:27;10.18;;;9.20;;
15443;SDS011;7822;48.146;11.576;2022-07-22T10:32:11;9.57;;;8.60;;
15443;SDS011;7822;48.146;11.576;2022-07-22T10:37:49;9.73;;;8.90;;
15443;SDS011;7822;48.146;11.576;2022-07-22T10:40:19;9.75;;;8.95;;
15443;SDS011;7822;48.146;11.576;2022-07-22T10:45:49;11.13;;;10.02;;
15443;SDS011;7822;48.146;11.576;2022-07-22T10:48:19;10.45;;;9.45;;
15443;SDS011;7822;48.146;11.576;2022-07-22T10:50:51;10.68;;;9.57;;
15443;SDS011;7822;48.146;11.576;2022-07-22T10:53:40;9.65;;;8.75;;
15443;SDS011;7822;48.146;11.576;2022-07-22T10:56:13;9.05;;;8.25;;
15443;SDS011;7822;48.146;11.576;2022-07-22T10:58:46;10.07;;;9.20;;
15443;SDS011;7822;48.146;11.576;2022-07-22T11:01:21;10.18;;;9.27;;
15443;SDS011;7822;48.146;11.576;2022-07-22T11:03:51;10.18;;;9.35;;
15443;SDS011;7822;48.146;11.576;2022-07-22T11:06:26;10.50;;;9.60;;
15443;SDS011;7822;48.146;11.576;2022-07-22T11:08:56;9.52;;;8.82;;
15443;SDS011;7822;48.146;11.576;2022-07-22T11:11:36;9.07;;;8.32;;
15443;SDS011;7822;48.146;11.576;2022-07-22T11:14:12;10.23;;;9.18;;
15443;SDS011;7822;48.146;11.576;2022-07-22T11:16:43;9.30;;;8.55;;
15443;SDS011;7822;48.146;11.576;2022-07-22T11:19:12;9.70;;;8.80;;
15443;SDS011;7822;48.146;11.576;2022-07-22T11:21:48;10.45;;;9.50;;
15443;SDS011;7822;48.146;11.576;2022-07-22T11:24:17;9.88;;;8.98;;
15443;SDS011;7822;48.146;11.576;2022-07-22T11:26:47;8.93;;;8.13;;
15443;SDS011;7822;48.146;11.576;2022-07-22T11:29:17;9.18;;;8.30;;
15443;SDS011;7822;48.146;11.576;2022-07-22T11:31:47;10.20;;;9.40;;
15443;SDS011;7822;48.146;11.576;2022-07-22T11:34:15;10.13;;;9.23;;
15443;SDS011;7822;48.146;11.576;2022-07-22T11:36:44;9.52;;;8.73;;
15443;SDS011;7822;48.146;11.576;2022-07-22T11:39:13;9.60;;;8.90;;
15443;SDS011;7822;48.146;11.576;2022-07-22T11:41:45;9.75;;;8.85;;
15443;SDS011;7822;48.146;11.576;2022-07-22T11:44:16;9.75;;;9.00;;
15443;SDS011;7822;48.146;11.576;2022-07-22T11:46:45;9.32;;;8.52;;
15443;SDS011;7822;48.146;11.576;2022-07-22T11:49:16;9.48;;;8.65;;
15443;SDS011;7822;48.146;11.576;2022-07-22T11:51:45;9.55;;;8.73;;
15443;SDS011;7822;48.146;11.576;2022-07-22T11:54:14;9.73;;;8.85;;
15443;SDS011;7822;48.146;11.576;2022-07-22T11:56:42;9.18;;;8.38;;
15443;SDS011;7822;48.146;11.576;2022-07-22T11:59:11;9.48;;;8.68;;
15443;SDS011;7822;48.146;11.576;2022-07-22T12:01:40;10.13;;;9.32;;
15443;SDS011;7822;48.146;11.576;2022-07-22T12:12:40;9.88;;;8.98;;
15443;SDS011;7822;48.146;11.576;2022-07-22T12:15:09;9.57;;;8.73;;
15443;SDS011;7822;48.146;11.576;2022-07-22T12:20:45;10.05;;;9.15;;
15443;SDS011;7822;48.146;11.576;2022-07-22T12:23:18;10.23;;;9.43;;
15443;SDS011;7822;48.146;11.576;2022-07-22T12:25:49;8.98;;;8.27;;
15443;SDS011;7822;48.146;11.576;2022-07-22T12:28:17;9.88;;;9.02;;
15443;SDS011;7822;48.146;11.576;2022-07-22T12:33:06;10.45;;;9.52;;
15443;SDS011;7822;48.146;11.576;2022-07-22T12:35:40;9.43;;;8.63;;
15443;SDS011;7822;48.146;11.576;2022-07-22T12:38:09;9.60;;;8.77;;
15443;SDS011;7822;48.146;11.576;2022-07-22T12:40:37;9.27;;;8.52;;
15443;SDS011;7822;48.146;11.576;2022-07-22T12:43:06;9.93;;;9.13;;
15443;SDS011;7822;48.146;11.576;2022-07-22T12:45:35;9.93;;;8.98;;
15443;SDS011;7822;48.146;11.576;2022-07-22T12:48:07;10.45;;;9.65;;
15443;SDS011;7822;48.146;11.576;2022-07-22T12:50:38;10.25;;;9.25;;
15443;SDS011;7822;48.146;11.576;2022-07-22T12:53:09;10.43;;;9.45;;
15443;SDS011;7822;48.146;11.576;2022-07-22T12:55:42;10.27;;;9.35;;
15443;SDS011;7822;48.146;11.576;2022-07-22T12:58:11;10.48;;;9.60;;
15443;SDS011;7822;48.146;11.576;2022-07-22T13:00:44;10.15;;;9.30;;
15443;SDS011;7822;48.146;11.576;2022-07-22T13:03:14;10.82;;;9.82;;
15443;SDS011;7822;48.146;11.576;2022-07-22T13:05:46;11.05;;;10.05;;
15443;SDS011;7822;48.146;11.576;2022-07-22T13:08:14;9.90;;;8.82;;
15443;SDS011;7822;48.146;11.576;2022-07-22T13:10:42;10.25;;;9.40;;
15443;SDS011;7822;48.146;11.576;2022-07-22T13:13:09;9.98;;;9.07;;
15443;SDS011;7822;48.146;11.576;2022-07-22T13:15:37;10.45;;;9.60;;
15443;SDS011;7822;48.146;11.576;2022-07-22T13:18:05;10.23;;;9.43;;
15443;SDS011;7822;48.146;11.576;2022-07-22T13:20:34;10.75;;;9.95;;
15443;SDS011;7822;48.146;11.576;2022-07-22T13:23:02;10.68;;;9.60;;
15443;SDS011;7822;48.146;11.576;2022-07-22T13:25:30;10.82;;;9.93;;
15443;SDS011;7822;48.146;11.576;2022-07-22T13:27:59;9.77;;;8.98;;
15443;SDS011;7822;48.146;11.576;2022-07-22T13:30:27;11.68;;;9.85;;
15443;SDS011;7822;48.146;11.576;2022-07-22T13:32:55;10.65;;;9.85;;
15443;SDS011;7822;48.146;11.576;2022-07-22T13:35:23;10.85;;;9.93;;
15443;SDS011;7822;48.146;11.576;2022-07-22T13:37:52;10.48;;;9.48;;
15443;SDS011;7822;48.146;11.576;2022-07-22T13:40:20;10.50;;;9.60;;
15443;SDS011;7822;48.146;11.576;2022-07-22T13:42:47;11.43;;;9.23;;
15443;SDS011;7822;48.146;11.576;2022-07-22T13:45:15;10.63;;;9.55;;
15443;SDS011;7822;48.146;11.576;2022-07-22T13:47:43;10.25;;;9.45;;
15443;SDS011;7822;48.146;11.576;2022-07-22T13:50:10;10.10;;;9.30;;
15443;SDS011;7822;48.146;11.576;2022-07-22T13:52:38;11.60;;;10.55;;
15443;SDS011;7822;48.146;11.576;2022-07-22T13:55:08;10.75;;;9.93;;
15443;SDS011;7822;48.146;11.576;2022-07-22T13:57:36;10.77;;;9.88;;
15443;SDS011;7822;48.146;11.576;2022-07-22T14:00:04;11.38;;;9.23;;
15443;SDS011;7822;48.146;11.576;2022-07-22T14:02:39;10.77;;;9.88;;
15443;SDS011;7822;48.146;11.576;2022-07-22T14:05:08;9.90;;;9.10;;
15443;SDS011;7822;48.146;11.576;2022-07-22T14:07:35;10.23;;;9.40;;
15443;SDS011;7822;48.146;11.576;2022-07-22T14:10:04;10.48;;;9.68;;
15443;SDS011;7822;48.146;11.576;2022-07-22T14:12:33;10.30;;;9.35;;
15443;SDS011;7822;48.146;11.576;2022-07-22T14:15:01;10.82;;;8.85;;
15443;SDS011;7822;48.146;11.576;2022-07-22T14:17:29;10.38;;;9.45;;
15443;SDS011;7822;48.146;11.576;2022-07-22T14:19:57;10.23;;;9.43;;
15443;SDS011;7822;48.146;11.576;2022-07-22T14:22:27;10.38;;;9.40;;
15443;SDS011;7822;48.146;11.576;2022-07-22T14:24:54;9.77;;;9.00;;
15443;SDS011;7822;48.146;11.576;2022-07-22T14:27:22;10.18;;;9.38;;
15443;SDS011;7822;48.146;11.576;2022-07-22T14:29:51;10.02;;;9.23;;
15443;SDS011;7822;48.146;11.576;2022-07-22T14:32:19;10.20;;;9.40;;
15443;SDS011;7822;48.146;11.576;2022-07-22T14:34:46;10.05;;;9.25;;
15443;SDS011;7822;48.146;11.576;2022-07-22T14:37:14;10.38;;;9.57;;
15443;SDS011;7822;48.146;11.576;2022-07-22T14:39:42;10.45;;;9.65;;
15443;SDS011;7822;48.146;11.576;2022-07-22T14:42:10;10.30;;;9.45;;
15443;SDS011;7822;48.146;11.576;2022-07-22T14:44:38;10.45;;;9.55;;
15443;SDS011;7822;48.146;11.576;2022-07-22T14:47:07;10.43;;;9.43;;
15443;SDS011;7822;48.146;11.576;2022-07-22T14:49:35;10.77;;;9.82;;
15443;SDS011;7822;48.146;11.576;2022-07-22T14:52:02;10.02;;;9.13;;
15443;SDS011;7822;48.146;11.576;2022-07-22T14:54:30;9.95;;;9.15;;
15443;SDS011;7822;48.146;11.576;2022-07-22T14:56:58;9.82;;;9.00;;
15443;SDS011;7822;48.146;11.576;2022-07-22T14:59:25;9.27;;;8.63;;
15443;SDS011;7822;48.146;11.576;2022-07-22T15:01:54;10.38;;;9.57;;
15443;SDS011;7822;48.146;11.576;2022-07-22T15:04:23;10.07;;;9.27;;
15443;SDS011;7822;48.146;11.576;2022-07-22T15:06:51;10.88;;;9.93;;
15443;SDS011;7822;48.146;11.576;2022-07-22T15:09:19;10.38;;;9.48;;
15443;SDS011;7822;48.146;11.576;2022-07-22T15:11:46;10.73;;;9.82;;
15443;SDS011;7822;48.146;11.576;2022-07-22T15:14:15;9.98;;;9.18;;
15443;SDS011;7822;48.146;11.576;2022-07-22T15:16:43;9.55;;;8.85;;
15443;SDS011;7822;48.146;11.576;2022-07-22T15:19:11;10.05;;;9.15;;